createdAt,value
2017-11-25T00:00:50.156Z,963.87
2017-11-25T00:01:50.142Z,963.88
2017-11-25T00:02:50.134Z,963.84
2017-11-25T00:03:50.133Z,963.82
2017-11-25T00:04:50.118Z,963.75
2017-11-25T00:05:50.109Z,963.69
2017-11-25T00:06:50.100Z,963.69
2017-11-25T00:07:50.093Z,963.69
2017-11-25T00:08:50.185Z,963.68
2017-11-25T00:09:50.076Z,963.69
2017-11-25T00:10:50.067Z,963.67
2017-11-25T00:11:50.059Z,963.65
2017-11-25T00:12:50.051Z,963.68
2017-11-25T00:13:50.042Z,963.66
2017-11-25T00:14:50.035Z,963.64
2017-11-25T00:15:50.027Z,963.66
2017-11-25T00:16:50.018Z,963.62
2017-11-25T00:17:50.009Z,963.59
2017-11-25T00:18:50.006Z,963.52
2017-11-25T00:19:49.993Z,963.52
2017-11-25T00:20:49.984Z,963.49
2017-11-25T00:21:50.081Z,963.47
2017-11-25T00:22:49.972Z,963.45
2017-11-25T00:23:49.960Z,963.44
2017-11-25T00:24:49.957Z,963.43
2017-11-25T00:25:49.944Z,963.43
2017-11-25T00:26:49.935Z,963.42
2017-11-25T00:27:49.925Z,963.41
2017-11-25T00:28:49.919Z,963.42
2017-11-25T00:29:49.911Z,963.36
2017-11-25T00:30:49.901Z,963.37
2017-11-25T00:31:49.894Z,963.35
2017-11-25T00:32:49.985Z,963.31
2017-11-25T00:33:49.877Z,963.27
2017-11-25T00:34:49.869Z,963.27
2017-11-25T00:35:49.863Z,963.27
2017-11-25T00:36:49.854Z,963.23
2017-11-25T00:37:49.847Z,963.2
2017-11-25T00:38:49.837Z,963.19
2017-11-25T00:39:49.829Z,963.19
2017-11-25T00:40:49.820Z,963.22
2017-11-25T00:41:49.815Z,963.21
2017-11-25T00:42:49.803Z,963.18
2017-11-25T00:43:49.797Z,963.22
2017-11-25T00:44:49.789Z,963.21
2017-11-25T00:45:49.779Z,963.19
2017-11-25T00:46:49.772Z,963.18
2017-11-25T00:47:49.762Z,963.15
2017-11-25T00:48:49.756Z,963.15
2017-11-25T00:49:49.745Z,963.15
2017-11-25T00:50:49.738Z,963.14
2017-11-25T00:51:49.730Z,963.17
2017-11-25T00:52:49.726Z,963.14
2017-11-25T00:53:49.713Z,963.1
2017-11-25T00:54:49.706Z,963.09
2017-11-25T00:55:49.898Z,963.06
2017-11-25T00:56:49.688Z,963.07
2017-11-25T00:57:49.680Z,963.02
2017-11-25T00:58:49.672Z,963
2017-11-25T00:59:49.664Z,963.02
2017-11-25T01:00:49.653Z,963.05
2017-11-25T01:01:49.648Z,963.02
2017-11-25T01:02:49.639Z,963.03
2017-11-25T01:03:49.630Z,963.04
2017-11-25T01:04:49.621Z,963.02
2017-11-25T01:05:49.614Z,963.04
2017-11-25T01:06:49.608Z,963
2017-11-25T01:07:49.598Z,963.03
2017-11-25T01:08:49.589Z,963
2017-11-25T01:09:49.581Z,962.97
2017-11-25T01:10:49.573Z,962.92
2017-11-25T01:11:49.564Z,962.9
2017-11-25T01:12:49.556Z,962.9
2017-11-25T01:13:49.549Z,962.87
2017-11-25T01:14:49.540Z,962.88
2017-11-25T01:15:49.532Z,962.85
2017-11-25T01:16:49.524Z,962.83
2017-11-25T01:17:49.615Z,962.82
2017-11-25T01:18:49.507Z,962.81
2017-11-25T01:19:49.503Z,962.82
2017-11-25T01:20:49.497Z,962.77
2017-11-25T01:21:49.483Z,962.72
2017-11-25T01:22:49.475Z,962.73
2017-11-25T01:23:49.466Z,962.71
2017-11-25T01:24:49.457Z,962.69
2017-11-25T01:25:49.450Z,962.66
2017-11-25T01:26:49.441Z,962.62
2017-11-25T01:27:49.433Z,962.64
2017-11-25T01:28:49.424Z,962.59
2017-11-25T01:29:49.415Z,962.57
2017-11-25T01:30:49.408Z,962.52
2017-11-25T01:31:49.400Z,962.52
2017-11-25T01:32:49.392Z,962.5
2017-11-25T01:33:49.383Z,962.49
2017-11-25T01:34:49.374Z,962.53
2017-11-25T01:35:49.380Z,962.59
2017-11-25T01:36:49.358Z,962.57
2017-11-25T01:37:49.351Z,962.55
2017-11-25T01:38:49.341Z,962.52
2017-11-25T01:39:49.333Z,962.48
2017-11-25T01:40:49.324Z,962.44
2017-11-25T01:41:49.316Z,962.48
2017-11-25T01:42:49.309Z,962.43
2017-11-25T01:43:49.303Z,962.42
2017-11-25T01:44:49.291Z,962.44
2017-11-25T01:45:49.284Z,962.4
2017-11-25T01:46:49.276Z,962.39
2017-11-25T01:47:49.267Z,962.39
2017-11-25T01:48:49.260Z,962.33
2017-11-25T01:49:49.248Z,962.35
2017-11-25T01:50:49.243Z,962.34
2017-11-25T01:51:49.234Z,962.33
2017-11-25T01:52:49.225Z,962.32
2017-11-25T01:53:49.318Z,962.31
2017-11-25T01:54:49.209Z,962.24
2017-11-25T01:55:49.200Z,962.25
2017-11-25T01:56:49.192Z,962.22
2017-11-25T01:57:49.187Z,962.22
2017-11-25T01:58:49.177Z,962.17
2017-11-25T01:59:49.169Z,962.15
2017-11-25T02:00:49.159Z,962.07
2017-11-25T02:01:49.151Z,962
2017-11-25T02:02:49.143Z,961.99
2017-11-25T02:03:49.135Z,961.91
2017-11-25T02:04:49.126Z,961.86
2017-11-25T02:05:49.234Z,961.85
2017-11-25T02:06:49.110Z,961.86
2017-11-25T02:07:49.101Z,961.83
2017-11-25T02:08:49.092Z,961.81
2017-11-25T02:09:49.085Z,961.8
2017-11-25T02:10:49.076Z,961.79
2017-11-25T02:11:49.080Z,961.78
2017-11-25T02:12:49.060Z,961.75
2017-11-25T02:13:49.052Z,961.73
2017-11-25T02:14:49.045Z,961.74
2017-11-25T02:15:49.037Z,961.68
2017-11-25T02:16:49.043Z,961.62
2017-11-25T02:17:49.020Z,961.6
2017-11-25T02:18:49.011Z,961.6
2017-11-25T02:19:49.005Z,961.57
2017-11-25T02:20:48.995Z,961.58
2017-11-25T02:21:48.988Z,961.52
2017-11-25T02:22:48.978Z,961.45
2017-11-25T02:23:48.971Z,961.36
2017-11-25T02:24:48.964Z,961.33
2017-11-25T02:25:48.954Z,961.25
2017-11-25T02:26:48.946Z,961.25
2017-11-25T02:27:48.939Z,961.17
2017-11-25T02:28:48.929Z,961.2
2017-11-25T02:29:48.921Z,961.19
2017-11-25T02:30:48.913Z,961.17
2017-11-25T02:31:48.903Z,961.17
2017-11-25T02:32:48.896Z,961.15
2017-11-25T02:33:48.894Z,961.17
2017-11-25T02:34:48.884Z,961.14
2017-11-25T02:35:48.873Z,961.19
2017-11-25T02:36:48.863Z,961.17
2017-11-25T02:37:48.855Z,961.17
2017-11-25T02:38:48.847Z,961.17
2017-11-25T02:39:48.837Z,961.17
2017-11-25T02:40:48.830Z,961.13
2017-11-25T02:41:48.822Z,961.05
2017-11-25T02:42:48.817Z,961.03
2017-11-25T02:43:48.805Z,961.04
2017-11-25T02:44:48.797Z,961.05
2017-11-25T02:45:48.790Z,961.04
2017-11-25T02:46:48.791Z,961.01
2017-11-25T02:47:48.774Z,960.97
2017-11-25T02:48:48.765Z,960.99
2017-11-25T02:49:48.757Z,960.96
2017-11-25T02:50:48.746Z,960.95
2017-11-25T02:51:48.750Z,960.94
2017-11-25T02:52:48.734Z,960.95
2017-11-25T02:53:48.723Z,960.95
2017-11-25T02:54:48.718Z,960.9
2017-11-25T02:55:48.706Z,960.86
2017-11-25T02:56:48.698Z,960.84
2017-11-25T02:57:48.689Z,960.78
2017-11-25T02:58:48.681Z,960.77
2017-11-25T02:59:48.673Z,960.69
2017-11-25T03:00:48.663Z,960.64
2017-11-25T03:01:48.656Z,960.58
2017-11-25T03:02:48.646Z,960.56
2017-11-25T03:03:48.639Z,960.53
2017-11-25T03:04:48.630Z,960.48
2017-11-25T03:05:48.625Z,960.42
2017-11-25T03:06:48.614Z,960.36
2017-11-25T03:07:48.607Z,960.32
2017-11-25T03:08:48.597Z,960.31
2017-11-25T03:09:48.589Z,960.27
2017-11-25T03:10:48.582Z,960.21
2017-11-25T03:11:48.574Z,960.19
2017-11-25T03:12:48.563Z,960.18
2017-11-25T03:13:48.557Z,960.14
2017-11-25T03:14:48.548Z,960.16
2017-11-25T03:15:48.539Z,960.18
2017-11-25T03:16:48.537Z,960.18
2017-11-25T03:17:48.523Z,960.13
2017-11-25T03:18:48.515Z,960.12
2017-11-25T03:19:48.507Z,960.08
2017-11-25T03:20:48.498Z,960.06
2017-11-25T03:21:48.491Z,960
2017-11-25T03:22:48.482Z,960.02
2017-11-25T03:23:48.473Z,960.06
2017-11-25T03:24:48.465Z,960.05
2017-11-25T03:25:48.464Z,960.09
2017-11-25T03:26:48.449Z,960.08
2017-11-25T03:27:48.440Z,960.1
2017-11-25T03:28:48.432Z,960.09
2017-11-25T03:29:48.424Z,960.02
2017-11-25T03:30:48.418Z,959.97
2017-11-25T03:31:48.408Z,959.93
2017-11-25T03:32:48.403Z,959.9
2017-11-25T03:33:48.392Z,959.88
2017-11-25T03:34:48.382Z,959.83
2017-11-25T03:35:48.374Z,959.77
2017-11-25T03:36:48.366Z,959.71
2017-11-25T03:37:48.356Z,959.67
2017-11-25T03:38:48.349Z,959.66
2017-11-25T03:39:48.341Z,959.63
2017-11-25T03:40:48.333Z,959.66
2017-11-25T03:41:48.324Z,959.66
2017-11-25T03:42:48.316Z,959.66
2017-11-25T03:43:48.309Z,959.66
2017-11-25T03:44:48.301Z,959.67
2017-11-25T03:45:48.293Z,959.68
2017-11-25T03:46:48.284Z,959.59
2017-11-25T03:47:48.277Z,959.56
2017-11-25T03:48:48.268Z,959.55
2017-11-25T03:49:48.259Z,959.59
2017-11-25T03:50:48.250Z,959.6
2017-11-25T03:51:48.244Z,959.6
2017-11-25T03:52:48.239Z,959.55
2017-11-25T03:53:48.226Z,959.56
2017-11-25T03:54:48.216Z,959.55
2017-11-25T03:55:48.208Z,959.51
2017-11-25T03:56:48.201Z,959.48
2017-11-25T03:57:48.192Z,959.46
2017-11-25T03:58:48.188Z,959.48
2017-11-25T03:59:48.176Z,959.44
2017-11-25T04:00:48.166Z,959.44
2017-11-25T04:01:48.167Z,959.44
2017-11-25T04:02:48.152Z,959.39
2017-11-25T04:03:48.143Z,959.38
2017-11-25T04:04:48.133Z,959.33
2017-11-25T04:05:48.127Z,959.3
2017-11-25T04:06:48.117Z,959.25
2017-11-25T04:07:48.109Z,959.2
2017-11-25T04:08:48.100Z,959.17
2017-11-25T04:09:48.093Z,959.15
2017-11-25T04:10:48.083Z,959.14
2017-11-25T04:11:48.076Z,959.11
2017-11-25T04:12:48.067Z,959.12
2017-11-25T04:13:48.060Z,959.07
2017-11-25T04:14:48.050Z,959.03
2017-11-25T04:15:48.042Z,959.01
2017-11-25T04:16:48.040Z,958.98
2017-11-25T04:17:48.026Z,958.94
2017-11-25T04:18:48.017Z,958.91
2017-11-25T04:19:48.009Z,958.9
2017-11-25T04:20:48.001Z,958.89
2017-11-25T04:21:48.000Z,958.89
2017-11-25T04:22:47.985Z,958.84
2017-11-25T04:23:48.075Z,958.87
2017-11-25T04:24:48.068Z,958.84
2017-11-25T04:25:47.958Z,958.83
2017-11-25T04:26:47.950Z,958.79
2017-11-25T04:27:47.949Z,958.79
2017-11-25T04:28:47.940Z,958.77
2017-11-25T04:29:47.932Z,958.73
2017-11-25T04:30:47.918Z,958.69
2017-11-25T04:31:47.909Z,958.67
2017-11-25T04:32:47.901Z,958.68
2017-11-25T04:33:47.893Z,958.72
2017-11-25T04:34:47.883Z,958.69
2017-11-25T04:35:47.885Z,958.72
2017-11-25T04:36:47.870Z,958.69
2017-11-25T04:37:47.859Z,958.67
2017-11-25T04:38:47.850Z,958.6
2017-11-25T04:39:47.842Z,958.55
2017-11-25T04:40:47.834Z,958.52
2017-11-25T04:41:47.829Z,958.47
2017-11-25T04:42:47.817Z,958.52
2017-11-25T04:43:47.809Z,958.5
2017-11-25T04:44:47.801Z,958.52
2017-11-25T04:45:47.793Z,958.47
2017-11-25T04:46:47.784Z,958.46
2017-11-25T04:47:47.776Z,958.4
2017-11-25T04:48:47.766Z,958.41
2017-11-25T04:49:47.764Z,958.39
2017-11-25T04:50:47.749Z,958.38
2017-11-25T04:51:47.743Z,958.37
2017-11-25T04:52:47.738Z,958.33
2017-11-25T04:53:47.725Z,958.32
2017-11-25T04:54:47.717Z,958.35
2017-11-25T04:55:47.708Z,958.31
2017-11-25T04:56:47.701Z,958.29
2017-11-25T04:57:47.692Z,958.28
2017-11-25T04:58:47.683Z,958.24
2017-11-25T04:59:47.674Z,958.24
2017-11-25T05:00:47.666Z,958.21
2017-11-25T05:01:47.662Z,958.21
2017-11-25T05:02:47.650Z,958.14
2017-11-25T05:03:47.642Z,958.11
2017-11-25T05:04:47.636Z,958
2017-11-25T05:05:47.624Z,957.96
2017-11-25T05:06:47.616Z,957.95
2017-11-25T05:07:47.612Z,957.99
2017-11-25T05:08:47.601Z,957.95
2017-11-25T05:09:47.591Z,957.99
2017-11-25T05:10:47.584Z,957.98
2017-11-25T05:11:47.579Z,957.96
2017-11-25T05:12:47.566Z,957.97
2017-11-25T05:13:47.559Z,957.9
2017-11-25T05:14:47.550Z,957.82
2017-11-25T05:15:47.542Z,957.82
2017-11-25T05:16:47.533Z,957.8
2017-11-25T05:17:47.528Z,957.77
2017-11-25T05:18:47.516Z,957.73
2017-11-25T05:19:47.509Z,957.72
2017-11-25T05:20:47.499Z,957.75
2017-11-25T05:21:47.493Z,957.73
2017-11-25T05:22:47.484Z,957.72
2017-11-25T05:23:47.481Z,957.75
2017-11-25T05:24:47.469Z,957.72
2017-11-25T05:25:47.460Z,957.68
2017-11-25T05:26:47.450Z,957.66
2017-11-25T05:27:47.443Z,957.62
2017-11-25T05:28:47.533Z,957.63
2017-11-25T05:29:47.426Z,957.59
2017-11-25T05:30:47.416Z,957.54
2017-11-25T05:31:47.410Z,957.55
2017-11-25T05:32:47.398Z,957.51
2017-11-25T05:33:47.393Z,957.53
2017-11-25T05:34:47.383Z,957.54
2017-11-25T05:35:47.376Z,957.57
2017-11-25T05:36:47.366Z,957.57
2017-11-25T05:37:47.359Z,957.62
2017-11-25T05:38:47.350Z,957.6
2017-11-25T05:39:47.347Z,957.57
2017-11-25T05:40:47.333Z,957.54
2017-11-25T05:41:47.325Z,957.51
2017-11-25T05:42:47.316Z,957.5
2017-11-25T05:43:47.314Z,957.55
2017-11-25T05:44:47.302Z,957.53
2017-11-25T05:45:47.292Z,957.54
2017-11-25T05:46:47.283Z,957.56
2017-11-25T05:47:47.279Z,957.54
2017-11-25T05:48:47.268Z,957.52
2017-11-25T05:49:47.259Z,957.47
2017-11-25T05:50:47.250Z,957.43
2017-11-25T05:51:47.243Z,957.41
2017-11-25T05:52:47.232Z,957.34
2017-11-25T05:53:47.230Z,957.29
2017-11-25T05:54:47.219Z,957.25
2017-11-25T05:55:47.208Z,957.22
2017-11-25T05:56:47.200Z,957.24
2017-11-25T05:57:47.192Z,957.28
2017-11-25T05:58:47.186Z,957.32
2017-11-25T05:59:47.176Z,957.27
2017-11-25T06:00:47.168Z,957.27
2017-11-25T06:01:47.259Z,957.22
2017-11-25T06:02:47.152Z,957.18
2017-11-25T06:03:47.142Z,957.14
2017-11-25T06:04:47.133Z,957.12
2017-11-25T06:05:47.127Z,957.17
2017-11-25T06:06:47.118Z,957.16
2017-11-25T06:07:47.112Z,957.16
2017-11-25T06:08:47.100Z,957.14
2017-11-25T06:09:47.192Z,957.08
2017-11-25T06:10:47.084Z,957.09
2017-11-25T06:11:47.080Z,957.17
2017-11-25T06:12:47.067Z,957.25
2017-11-25T06:13:47.159Z,957.22
2017-11-25T06:14:47.049Z,957.21
2017-11-25T06:15:47.041Z,957.23
2017-11-25T06:16:47.033Z,957.24
2017-11-25T06:17:47.026Z,957.19
2017-11-25T06:18:47.016Z,957.17
2017-11-25T06:19:47.007Z,957.17
2017-11-25T06:20:47.001Z,957.21
2017-11-25T06:21:46.992Z,957.26
2017-11-25T06:22:46.983Z,957.29
2017-11-25T06:23:46.975Z,957.33
2017-11-25T06:24:46.969Z,957.23
2017-11-25T06:25:46.962Z,957.28
2017-11-25T06:26:46.949Z,957.39
2017-11-25T06:27:46.941Z,957.51
2017-11-25T06:28:46.933Z,957.6
2017-11-25T06:29:46.923Z,957.7
2017-11-25T06:30:46.915Z,957.69
2017-11-25T06:31:46.909Z,957.64
2017-11-25T06:32:46.940Z,957.65
2017-11-25T06:33:46.889Z,957.61
2017-11-25T06:34:46.882Z,957.73
2017-11-25T06:35:46.874Z,957.76
2017-11-25T06:36:46.864Z,957.79
2017-11-25T06:37:46.857Z,957.82
2017-11-25T06:38:46.851Z,957.82
2017-11-25T06:39:46.859Z,957.77
2017-11-25T06:40:46.831Z,957.77
2017-11-25T06:41:46.823Z,957.72
2017-11-25T06:42:46.816Z,957.8
2017-11-25T06:43:46.807Z,957.83
2017-11-25T06:44:46.799Z,957.95
2017-11-25T06:45:46.791Z,957.92
2017-11-25T06:46:46.785Z,957.87
2017-11-25T06:47:46.774Z,957.87
2017-11-25T06:48:46.764Z,957.82
2017-11-25T06:49:46.758Z,957.82
2017-11-25T06:50:46.749Z,957.91
2017-11-25T06:51:46.740Z,958.03
2017-11-25T06:52:46.736Z,958.02
2017-11-25T06:53:46.725Z,958.04
2017-11-25T06:54:46.720Z,958.01
2017-11-25T06:55:46.707Z,958.03
2017-11-25T06:56:46.703Z,958
2017-11-25T06:57:46.692Z,957.99
2017-11-25T06:58:46.682Z,957.99
2017-11-25T06:59:46.674Z,958.06
2017-11-25T07:00:46.666Z,958.06
2017-11-25T07:01:46.658Z,958.08
2017-11-25T07:02:46.648Z,958.12
2017-11-25T07:03:46.641Z,958.14
2017-11-25T07:04:46.632Z,958.19
2017-11-25T07:05:46.623Z,958.26
2017-11-25T07:06:46.615Z,958.26
2017-11-25T07:07:46.607Z,958.24
2017-11-25T07:08:46.700Z,958.23
2017-11-25T07:09:46.590Z,958.16
2017-11-25T07:10:46.583Z,958.18
2017-11-25T07:11:46.573Z,958.22
2017-11-25T07:12:46.565Z,958.19
2017-11-25T07:13:46.556Z,958.21
2017-11-25T07:14:46.548Z,958.17
2017-11-25T07:15:46.541Z,958.15
2017-11-25T07:16:46.532Z,958.11
2017-11-25T07:17:46.623Z,958.17
2017-11-25T07:18:46.515Z,958.14
2017-11-25T07:19:46.508Z,958.09
2017-11-25T07:20:46.496Z,958.09
2017-11-25T07:21:46.489Z,958.08
2017-11-25T07:22:46.481Z,958.1
2017-11-25T07:23:46.472Z,958.08
2017-11-25T07:24:46.464Z,958.12
2017-11-25T07:25:46.467Z,958.15
2017-11-25T07:26:46.449Z,958.16
2017-11-25T07:27:46.439Z,958.16
2017-11-25T07:28:46.431Z,958.2
2017-11-25T07:29:46.422Z,958.23
2017-11-25T07:30:46.415Z,958.22
2017-11-25T07:31:46.405Z,958.27
2017-11-25T07:32:46.397Z,958.31
2017-11-25T07:33:46.390Z,958.33
2017-11-25T07:34:46.381Z,958.36
2017-11-25T07:35:46.372Z,958.39
2017-11-25T07:36:46.362Z,958.39
2017-11-25T07:37:46.353Z,958.4
2017-11-25T07:38:46.369Z,958.38
2017-11-25T07:39:46.338Z,958.4
2017-11-25T07:40:46.335Z,958.49
2017-11-25T07:41:46.323Z,958.58
2017-11-25T07:42:46.312Z,958.66
2017-11-25T07:43:46.303Z,958.72
2017-11-25T07:44:46.296Z,958.78
2017-11-25T07:45:46.288Z,958.86
2017-11-25T07:46:46.278Z,958.84
2017-11-25T07:47:46.270Z,958.91
2017-11-25T07:48:46.262Z,958.91
2017-11-25T07:49:46.252Z,958.88
2017-11-25T07:50:46.244Z,958.91
2017-11-25T07:51:46.236Z,958.91
2017-11-25T07:52:46.227Z,958.94
2017-11-25T07:53:46.219Z,959.01
2017-11-25T07:54:46.211Z,959.09
2017-11-25T07:55:46.204Z,959.09
2017-11-25T07:56:46.195Z,959.07
2017-11-25T07:57:46.186Z,959.08
2017-11-25T07:58:46.177Z,959.09
2017-11-25T07:59:46.169Z,959.11
2017-11-25T08:00:46.159Z,959.08
2017-11-25T08:01:46.151Z,959.15
2017-11-25T08:02:46.143Z,959.12
2017-11-25T08:03:46.235Z,959.2
2017-11-25T08:04:46.125Z,959.2
2017-11-25T08:05:46.116Z,959.18
2017-11-25T08:06:46.109Z,959.2
2017-11-25T08:07:46.099Z,959.28
2017-11-25T08:08:46.091Z,959.27
2017-11-25T08:09:46.082Z,959.22
2017-11-25T08:10:46.074Z,959.33
2017-11-25T08:11:46.064Z,959.39
2017-11-25T08:12:46.055Z,959.36
2017-11-25T08:13:46.249Z,959.39
2017-11-25T08:14:46.038Z,959.46
2017-11-25T08:15:46.030Z,959.53
2017-11-25T08:16:46.019Z,959.53
2017-11-25T08:17:46.020Z,959.72
2017-11-25T08:18:46.003Z,959.79
2017-11-25T08:19:45.992Z,959.76
2017-11-25T08:20:45.984Z,959.73
2017-11-25T08:21:45.975Z,959.79
2017-11-25T08:22:45.965Z,959.8
2017-11-25T08:23:45.956Z,959.85
2017-11-25T08:24:45.949Z,959.88
2017-11-25T08:25:45.939Z,959.86
2017-11-25T08:26:45.932Z,959.89
2017-11-25T08:27:45.922Z,959.88
2017-11-25T08:28:45.914Z,959.88
2017-11-25T08:29:45.905Z,959.9
2017-11-25T08:30:45.897Z,959.94
2017-11-25T08:31:45.888Z,959.96
2017-11-25T08:32:45.879Z,960.08
2017-11-25T08:33:45.870Z,960.14
2017-11-25T08:34:45.860Z,960.15
2017-11-25T08:35:45.853Z,960.18
2017-11-25T08:36:45.843Z,960.22
2017-11-25T08:37:45.834Z,960.29
2017-11-25T08:38:45.828Z,960.32
2017-11-25T08:39:45.816Z,960.35
2017-11-25T08:40:45.807Z,960.44
2017-11-25T08:41:45.801Z,960.48
2017-11-25T08:42:45.790Z,960.5
2017-11-25T08:43:45.782Z,960.57
2017-11-25T08:44:45.770Z,960.58
2017-11-25T08:45:45.764Z,960.64
2017-11-25T08:46:45.755Z,960.65
2017-11-25T08:47:45.748Z,960.65
2017-11-25T08:48:45.738Z,960.7
2017-11-25T08:49:45.729Z,960.77
2017-11-25T08:50:45.721Z,960.82
2017-11-25T08:51:45.712Z,960.88
2017-11-25T08:52:45.702Z,960.89
2017-11-25T08:53:45.694Z,960.93
2017-11-25T08:54:45.686Z,960.97
2017-11-25T08:55:45.676Z,961.01
2017-11-25T08:56:45.668Z,960.98
2017-11-25T08:57:45.661Z,961.05
2017-11-25T08:58:45.650Z,961.12
2017-11-25T08:59:45.644Z,961.1
2017-11-25T09:00:45.633Z,961.1
2017-11-25T09:01:45.626Z,961.19
2017-11-25T09:02:45.616Z,961.16
2017-11-25T09:03:45.607Z,961.16
2017-11-25T09:04:45.598Z,961.2
2017-11-25T09:05:45.592Z,961.14
2017-11-25T09:06:45.582Z,961.14
2017-11-25T09:07:45.572Z,961.14
2017-11-25T09:08:45.565Z,961.21
2017-11-25T09:09:45.555Z,961.22
2017-11-25T09:10:45.546Z,961.2
2017-11-25T09:11:45.538Z,961.18
2017-11-25T09:12:45.533Z,961.2
2017-11-25T09:13:45.519Z,961.23
2017-11-25T09:14:45.512Z,961.24
2017-11-25T09:15:45.503Z,961.19
2017-11-25T09:16:45.495Z,961.22
2017-11-25T09:17:45.486Z,961.23
2017-11-25T09:18:45.488Z,961.28
2017-11-25T09:19:45.469Z,961.27
2017-11-25T09:20:45.459Z,961.27
2017-11-25T09:21:45.451Z,961.33
2017-11-25T09:22:45.442Z,961.34
2017-11-25T09:23:45.433Z,961.28
2017-11-25T09:24:45.425Z,961.36
2017-11-25T09:25:45.418Z,961.44
2017-11-25T09:26:45.408Z,961.46
2017-11-25T09:27:45.400Z,961.47
2017-11-25T09:28:45.392Z,961.53
2017-11-25T09:29:45.384Z,961.56
2017-11-25T09:30:45.375Z,961.6
2017-11-25T09:31:45.365Z,961.58
2017-11-25T09:32:45.357Z,961.64
2017-11-25T09:33:45.350Z,961.68
2017-11-25T09:34:45.347Z,961.72
2017-11-25T09:35:45.329Z,961.72
2017-11-25T09:36:45.324Z,961.79
2017-11-25T09:37:45.316Z,961.78
2017-11-25T09:38:45.306Z,961.87
2017-11-25T09:39:45.296Z,961.88
2017-11-25T09:40:45.287Z,961.89
2017-11-25T09:41:45.280Z,961.95
2017-11-25T09:42:45.270Z,961.94
2017-11-25T09:43:45.262Z,961.98
2017-11-25T09:44:45.254Z,962
2017-11-25T09:45:45.248Z,962.01
2017-11-25T09:46:45.236Z,962.03
2017-11-25T09:47:45.330Z,962.05
2017-11-25T09:48:45.218Z,962
2017-11-25T09:49:45.313Z,962.05
2017-11-25T09:50:45.202Z,962.04
2017-11-25T09:51:45.192Z,962.02
2017-11-25T09:52:45.185Z,962.08
2017-11-25T09:53:45.178Z,962.09
2017-11-25T09:54:45.168Z,962.12
2017-11-25T09:55:45.157Z,962.16
2017-11-25T09:56:45.151Z,962.12
2017-11-25T09:57:45.141Z,962.17
2017-11-25T09:58:45.132Z,962.18
2017-11-25T09:59:45.124Z,962.21
2017-11-25T10:00:45.116Z,962.19
2017-11-25T10:01:45.108Z,962.25
2017-11-25T10:02:45.098Z,962.24
2017-11-25T10:03:45.191Z,962.31
2017-11-25T10:04:45.082Z,962.27
2017-11-25T10:05:45.074Z,962.3
2017-11-25T10:06:45.066Z,962.36
2017-11-25T10:07:45.057Z,962.24
2017-11-25T10:08:45.048Z,962.3
2017-11-25T10:09:45.040Z,962.26
2017-11-25T10:10:45.030Z,962.29
2017-11-25T10:11:45.029Z,962.35
2017-11-25T10:12:45.015Z,962.32
2017-11-25T10:13:45.006Z,962.35
2017-11-25T10:14:44.995Z,962.32
2017-11-25T10:15:44.986Z,962.33
2017-11-25T10:16:44.983Z,962.34
2017-11-25T10:17:44.970Z,962.37
2017-11-25T10:18:44.961Z,962.4
2017-11-25T10:19:44.953Z,962.34
2017-11-25T10:20:44.944Z,962.37
2017-11-25T10:21:44.935Z,962.42
2017-11-25T10:22:44.926Z,962.41
2017-11-25T10:23:44.919Z,962.44
2017-11-25T10:24:44.908Z,962.43
2017-11-25T10:25:44.902Z,962.46
2017-11-25T10:26:44.891Z,962.47
2017-11-25T10:27:44.882Z,962.44
2017-11-25T10:28:44.874Z,962.53
2017-11-25T10:29:44.869Z,962.55
2017-11-25T10:30:44.856Z,962.56
2017-11-25T10:31:44.847Z,962.59
2017-11-25T10:32:44.838Z,962.57
2017-11-25T10:33:44.930Z,962.64
2017-11-25T10:34:44.820Z,962.63
2017-11-25T10:35:44.813Z,962.64
2017-11-25T10:36:44.804Z,962.58
2017-11-25T10:37:44.795Z,962.66
2017-11-25T10:38:44.784Z,962.69
2017-11-25T10:39:44.777Z,962.72
2017-11-25T10:40:44.766Z,962.76
2017-11-25T10:41:44.758Z,962.74
2017-11-25T10:42:44.754Z,962.77
2017-11-25T10:43:44.742Z,962.75
2017-11-25T10:44:44.733Z,962.86
2017-11-25T10:45:44.723Z,962.9
2017-11-25T10:46:44.714Z,962.93
2017-11-25T10:47:44.705Z,963.08
2017-11-25T10:48:44.696Z,963
2017-11-25T10:49:44.687Z,963.04
2017-11-25T10:50:44.677Z,963.13
2017-11-25T10:51:44.670Z,963.09
2017-11-25T10:52:44.660Z,963.07
2017-11-25T10:53:44.652Z,963.06
2017-11-25T10:54:44.644Z,963.2
2017-11-25T10:55:44.640Z,963.13
2017-11-25T10:56:44.623Z,963.14
2017-11-25T10:57:44.618Z,963.15
2017-11-25T10:58:44.605Z,963.14
2017-11-25T10:59:44.595Z,963.22
2017-11-25T11:00:44.587Z,963.2
2017-11-25T11:01:44.578Z,963.31
2017-11-25T11:02:44.570Z,963.25
2017-11-25T11:03:44.558Z,963.27
2017-11-25T11:04:44.552Z,963.22
2017-11-25T11:05:44.542Z,963.34
2017-11-25T11:06:44.531Z,963.32
2017-11-25T11:07:44.524Z,963.36
2017-11-25T11:08:44.514Z,963.39
2017-11-25T11:09:44.505Z,963.39
2017-11-25T11:10:44.496Z,963.4
2017-11-25T11:11:44.487Z,963.43
2017-11-25T11:12:44.477Z,963.45
2017-11-25T11:13:44.470Z,963.46
2017-11-25T11:14:44.463Z,963.48
2017-11-25T11:15:44.476Z,963.48
2017-11-25T11:16:44.440Z,963.47
2017-11-25T11:17:44.432Z,963.51
2017-11-25T11:18:44.423Z,963.57
2017-11-25T11:19:44.414Z,963.55
2017-11-25T11:20:44.409Z,963.61
2017-11-25T11:21:44.396Z,963.62
2017-11-25T11:22:44.386Z,963.71
2017-11-25T11:23:44.377Z,963.67
2017-11-25T11:24:44.369Z,963.69
2017-11-25T11:25:44.358Z,963.73
2017-11-25T11:26:44.352Z,963.7
2017-11-25T11:27:44.340Z,963.73
2017-11-25T11:28:44.332Z,963.78
2017-11-25T11:29:44.324Z,963.81
2017-11-25T11:30:44.313Z,963.78
2017-11-25T11:31:44.310Z,963.8
2017-11-25T11:32:44.296Z,963.8
2017-11-25T11:33:44.285Z,963.83
2017-11-25T11:34:44.278Z,963.85
2017-11-25T11:35:44.269Z,963.89
2017-11-25T11:36:44.258Z,963.9
2017-11-25T11:37:44.250Z,963.91
2017-11-25T11:38:44.239Z,963.94
2017-11-25T11:39:44.234Z,963.97
2017-11-25T11:40:44.224Z,963.92
2017-11-25T11:41:44.219Z,963.91
2017-11-25T11:42:44.207Z,963.96
2017-11-25T11:43:44.196Z,963.96
2017-11-25T11:44:44.187Z,963.96
2017-11-25T11:45:44.177Z,964.04
2017-11-25T11:46:44.169Z,964.03
2017-11-25T11:47:44.161Z,964.04
2017-11-25T11:48:44.150Z,964.02
2017-11-25T11:49:44.145Z,964.06
2017-11-25T11:50:44.132Z,964.06
2017-11-25T11:51:44.123Z,964.12
2017-11-25T11:52:44.114Z,964.06
2017-11-25T11:53:44.106Z,964.08
2017-11-25T11:54:44.097Z,964.01
2017-11-25T11:55:44.094Z,963.99
2017-11-25T11:56:44.080Z,964.01
2017-11-25T11:57:44.069Z,964.01
2017-11-25T11:58:44.062Z,964.08
2017-11-25T11:59:44.056Z,964.08
2017-11-25T12:00:44.043Z,964.11
2017-11-25T12:01:44.033Z,964.14
2017-11-25T12:02:44.029Z,964.12
2017-11-25T12:03:44.116Z,964.17
2017-11-25T12:04:44.008Z,964.1
2017-11-25T12:05:43.997Z,964.08
2017-11-25T12:06:43.989Z,964.11
2017-11-25T12:07:43.981Z,964.11
2017-11-25T12:08:43.971Z,964.11
2017-11-25T12:09:43.961Z,964.08
2017-11-25T12:10:43.953Z,964.06
2017-11-25T12:11:43.944Z,964.06
2017-11-25T12:12:43.939Z,964.04
2017-11-25T12:13:43.926Z,964
2017-11-25T12:14:43.917Z,964.01
2017-11-25T12:15:43.910Z,964
2017-11-25T12:16:43.900Z,964
2017-11-25T12:17:43.991Z,963.99
2017-11-25T12:18:43.887Z,964.02
2017-11-25T12:19:43.874Z,963.96
2017-11-25T12:20:43.864Z,964
2017-11-25T12:21:43.855Z,963.99
2017-11-25T12:22:43.947Z,963.95
2017-11-25T12:23:43.837Z,963.99
2017-11-25T12:24:43.829Z,963.96
2017-11-25T12:25:43.819Z,963.98
2017-11-25T12:26:43.814Z,963.93
2017-11-25T12:27:43.802Z,963.94
2017-11-25T12:28:43.795Z,963.84
2017-11-25T12:29:43.785Z,963.84
2017-11-25T12:30:43.777Z,963.76
2017-11-25T12:31:43.768Z,963.79